Terminal Aerodrome Forecast
Issued by NWS

Home | Current Version | Previous Version | Text Only | Print | Product List | Glossary Off
Versions: 1 2 3 4 5 6 7 8 9 10 11 12 13 14 15 16 17 18 19 20 21

000
FTUS43 KFGF 271734
TAFBJI
TAF
KBJI 271734Z 2718/2818 14012G16KT P6SM BKN028
     FM272100 15012G19KT P6SM SCT040
     FM280200 14012KT P6SM SCT120
     FM281300 14012KT P6SM -TSRA BKN050CB=

USA.gov is the U.S. government's official web portal to all federal, state and local government web resources and services.